sensor_id;sensor_type;location;lat;lon;timestamp;temperature;humidity
35563;DHT22;21665;40.108;18.302;2023-02-13T00:02:24;7.80;99.90
35563;DHT22;21665;40.108;18.302;2023-02-13T00:04:50;7.80;99.90
35563;DHT22;21665;40.108;18.302;2023-02-13T00:07:18;7.80;99.90
35563;DHT22;21665;40.108;18.302;2023-02-13T00:09:44;7.80;99.90
35563;DHT22;21665;40.108;18.302;2023-02-13T00:12:11;7.90;99.90
35563;DHT22;21665;40.108;18.302;2023-02-13T00:14:39;7.90;99.90
35563;DHT22;21665;40.108;18.302;2023-02-13T00:17:06;7.90;99.90
35563;DHT22;21665;40.108;18.302;2023-02-13T00:19:33;7.90;99.90
35563;DHT22;21665;40.108;18.302;2023-02-13T00:22:00;8.00;99.90
35563;DHT22;21665;40.108;18.302;2023-02-13T00:24:26;8.00;99.90
35563;DHT22;21665;40.108;18.302;2023-02-13T00:26:53;8.10;99.90
35563;DHT22;21665;40.108;18.302;2023-02-13T00:29:20;8.10;99.90
35563;DHT22;21665;40.108;18.302;2023-02-13T00:31:47;8.10;99.90
35563;DHT22;21665;40.108;18.302;2023-02-13T00:34:13;8.10;99.90
35563;DHT22;21665;40.108;18.302;2023-02-13T00:36:40;8.10;99.90
35563;DHT22;21665;40.108;18.302;2023-02-13T00:39:09;8.10;99.90
35563;DHT22;21665;40.108;18.302;2023-02-13T00:41:37;8.10;99.90
35563;DHT22;21665;40.108;18.302;2023-02-13T00:44:03;8.10;99.90
35563;DHT22;21665;40.108;18.302;2023-02-13T00:46:30;8.20;99.90
35563;DHT22;21665;40.108;18.302;2023-02-13T00:48:57;8.30;99.90
35563;DHT22;21665;40.108;18.302;2023-02-13T00:51:24;8.30;99.90
35563;DHT22;21665;40.108;18.302;2023-02-13T00:53:51;8.30;99.90
35563;DHT22;21665;40.108;18.302;2023-02-13T00:56:17;8.40;99.90
35563;DHT22;21665;40.108;18.302;2023-02-13T00:58:44;8.30;99.90
35563;DHT22;21665;40.108;18.302;2023-02-13T01:01:11;8.40;99.90
35563;DHT22;21665;40.108;18.302;2023-02-13T01:03:40;8.40;99.90
35563;DHT22;21665;40.108;18.302;2023-02-13T01:06:07;8.50;99.90
35563;DHT22;21665;40.108;18.302;2023-02-13T01:08:40;8.50;99.90
35563;DHT22;21665;40.108;18.302;2023-02-13T01:11:11;8.50;99.90
35563;DHT22;21665;40.108;18.302;2023-02-13T01:13:44;8.50;99.90
35563;DHT22;21665;40.108;18.302;2023-02-13T01:16:12;8.60;99.90
35563;DHT22;21665;40.108;18.302;2023-02-13T01:18:44;8.60;99.90
35563;DHT22;21665;40.108;18.302;2023-02-13T01:21:17;8.60;99.90
35563;DHT22;21665;40.108;18.302;2023-02-13T01:23:45;8.60;99.90
35563;DHT22;21665;40.108;18.302;2023-02-13T01:26:27;8.60;99.90
35563;DHT22;21665;40.108;18.302;2023-02-13T01:28:54;8.20;99.90
35563;DHT22;21665;40.108;18.302;2023-02-13T01:31:23;8.10;99.90
35563;DHT22;21665;40.108;18.302;2023-02-13T01:33:50;7.90;99.90
35563;DHT22;21665;40.108;18.302;2023-02-13T01:36:21;8.00;99.90
35563;DHT22;21665;40.108;18.302;2023-02-13T01:38:51;8.10;99.90
35563;DHT22;21665;40.108;18.302;2023-02-13T01:41:17;8.30;99.90
35563;DHT22;21665;40.108;18.302;2023-02-13T01:46:40;8.30;99.90
35563;DHT22;21665;40.108;18.302;2023-02-13T01:49:17;8.40;99.90
35563;DHT22;21665;40.108;18.302;2023-02-13T01:51:48;8.40;99.90
35563;DHT22;21665;40.108;18.302;2023-02-13T01:54:29;8.40;99.90
35563;DHT22;21665;40.108;18.302;2023-02-13T01:57:08;8.30;99.90
35563;DHT22;21665;40.108;18.302;2023-02-13T01:59:46;8.40;99.90
35563;DHT22;21665;40.108;18.302;2023-02-13T02:02:15;8.40;99.90
35563;DHT22;21665;40.108;18.302;2023-02-13T02:04:45;8.40;99.90
35563;DHT22;21665;40.108;18.302;2023-02-13T02:07:23;8.30;99.90
35563;DHT22;21665;40.108;18.302;2023-02-13T02:09:52;8.30;99.90
35563;DHT22;21665;40.108;18.302;2023-02-13T02:13:14;8.20;99.90
35563;DHT22;21665;40.108;18.302;2023-02-13T02:15:18;8.20;99.90
35563;DHT22;21665;40.108;18.302;2023-02-13T02:17:46;8.10;99.90
35563;DHT22;21665;40.108;18.302;2023-02-13T02:47:08;7.50;99.90
35563;DHT22;21665;40.108;18.302;2023-02-13T03:01:20;7.60;99.90
35563;DHT22;21665;40.108;18.302;2023-02-13T03:04:18;7.50;99.90
35563;DHT22;21665;40.108;18.302;2023-02-13T03:07:07;7.50;99.90
35563;DHT22;21665;40.108;18.302;2023-02-13T03:09:39;7.50;99.90
35563;DHT22;21665;40.108;18.302;2023-02-13T03:12:30;7.60;99.90
35563;DHT22;21665;40.108;18.302;2023-02-13T03:15:17;7.70;99.90
35563;DHT22;21665;40.108;18.302;2023-02-13T03:17:44;7.70;99.90
35563;DHT22;21665;40.108;18.302;2023-02-13T03:20:45;7.70;99.90
35563;DHT22;21665;40.108;18.302;2023-02-13T03:26:53;7.70;99.90
35563;DHT22;21665;40.108;18.302;2023-02-13T03:29:43;7.70;99.90
35563;DHT22;21665;40.108;18.302;2023-02-13T03:35:27;7.80;99.90
35563;DHT22;21665;40.108;18.302;2023-02-13T03:41:39;7.80;99.90
35563;DHT22;21665;40.108;18.302;2023-02-13T03:44:40;7.80;99.90
35563;DHT22;21665;40.108;18.302;2023-02-13T03:47:10;7.80;99.90
35563;DHT22;21665;40.108;18.302;2023-02-13T03:49:45;7.70;99.90
35563;DHT22;21665;40.108;18.302;2023-02-13T03:55:47;7.60;99.90
35563;DHT22;21665;40.108;18.302;2023-02-13T03:58:40;7.50;99.90
35563;DHT22;21665;40.108;18.302;2023-02-13T04:01:29;7.60;99.90
35563;DHT22;21665;40.108;18.302;2023-02-13T04:07:11;7.60;99.90
35563;DHT22;21665;40.108;18.302;2023-02-13T04:10:01;7.60;99.90
35563;DHT22;21665;40.108;18.302;2023-02-13T04:12:56;7.60;99.90
35563;DHT22;21665;40.108;18.302;2023-02-13T04:18:14;7.50;99.90
35563;DHT22;21665;40.108;18.302;2023-02-13T04:20:43;7.50;99.90
35563;DHT22;21665;40.108;18.302;2023-02-13T04:23:12;7.50;99.90
35563;DHT22;21665;40.108;18.302;2023-02-13T04:25:42;7.50;99.90
35563;DHT22;21665;40.108;18.302;2023-02-13T04:28:10;7.40;99.90
35563;DHT22;21665;40.108;18.302;2023-02-13T04:30:37;7.30;99.90
35563;DHT22;21665;40.108;18.302;2023-02-13T04:33:04;7.30;99.90
35563;DHT22;21665;40.108;18.302;2023-02-13T04:35:31;7.20;99.90
35563;DHT22;21665;40.108;18.302;2023-02-13T04:37:57;7.20;99.90
35563;DHT22;21665;40.108;18.302;2023-02-13T04:40:24;7.20;99.90
35563;DHT22;21665;40.108;18.302;2023-02-13T04:42:50;7.10;99.90
35563;DHT22;21665;40.108;18.302;2023-02-13T04:45:17;7.10;99.90
35563;DHT22;21665;40.108;18.302;2023-02-13T04:47:50;7.20;99.90
35563;DHT22;21665;40.108;18.302;2023-02-13T04:50:17;7.20;99.90
35563;DHT22;21665;40.108;18.302;2023-02-13T04:52:44;7.20;99.90
35563;DHT22;21665;40.108;18.302;2023-02-13T04:55:11;7.20;99.90
35563;DHT22;21665;40.108;18.302;2023-02-13T04:57:38;7.20;99.90
35563;DHT22;21665;40.108;18.302;2023-02-13T05:00:06;7.20;99.90
35563;DHT22;21665;40.108;18.302;2023-02-13T05:02:33;7.20;99.90
35563;DHT22;21665;40.108;18.302;2023-02-13T05:05:00;7.20;99.90
35563;DHT22;21665;40.108;18.302;2023-02-13T05:07:27;7.20;99.90
35563;DHT22;21665;40.108;18.302;2023-02-13T05:09:54;7.20;99.90
35563;DHT22;21665;40.108;18.302;2023-02-13T05:12:21;7.30;99.90
35563;DHT22;21665;40.108;18.302;2023-02-13T05:14:47;7.30;99.90
35563;DHT22;21665;40.108;18.302;2023-02-13T05:17:14;7.30;99.90
35563;DHT22;21665;40.108;18.302;2023-02-13T05:19:41;7.40;99.90
35563;DHT22;21665;40.108;18.302;2023-02-13T05:22:09;7.40;99.90
35563;DHT22;21665;40.108;18.302;2023-02-13T05:24:57;7.40;99.90
35563;DHT22;21665;40.108;18.302;2023-02-13T05:27:24;7.50;99.90
35563;DHT22;21665;40.108;18.302;2023-02-13T05:29:51;7.50;99.90
35563;DHT22;21665;40.108;18.302;2023-02-13T05:32:18;7.50;99.90
35563;DHT22;21665;40.108;18.302;2023-02-13T05:34:45;7.50;99.90
35563;DHT22;21665;40.108;18.302;2023-02-13T05:37:12;7.50;99.90
35563;DHT22;21665;40.108;18.302;2023-02-13T05:39:39;7.50;99.90
35563;DHT22;21665;40.108;18.302;2023-02-13T05:42:06;7.50;99.90
35563;DHT22;21665;40.108;18.302;2023-02-13T05:44:32;7.50;99.90
35563;DHT22;21665;40.108;18.302;2023-02-13T05:46:59;7.50;99.90
35563;DHT22;21665;40.108;18.302;2023-02-13T05:49:25;7.50;99.90
35563;DHT22;21665;40.108;18.302;2023-02-13T05:51:52;7.50;99.90
35563;DHT22;21665;40.108;18.302;2023-02-13T05:54:19;7.50;99.90
35563;DHT22;21665;40.108;18.302;2023-02-13T05:56:46;7.50;99.90
35563;DHT22;21665;40.108;18.302;2023-02-13T05:59:14;7.60;99.90
35563;DHT22;21665;40.108;18.302;2023-02-13T06:01:41;7.70;99.90
35563;DHT22;21665;40.108;18.302;2023-02-13T06:04:07;7.80;99.90
35563;DHT22;21665;40.108;18.302;2023-02-13T06:06:35;7.90;99.90
35563;DHT22;21665;40.108;18.302;2023-02-13T06:09:02;8.00;99.90
35563;DHT22;21665;40.108;18.302;2023-02-13T09:58:48;13.00;99.90
35563;DHT22;21665;40.108;18.302;2023-02-13T10:01:35;13.10;99.90
35563;DHT22;21665;40.108;18.302;2023-02-13T10:04:28;13.20;99.90
35563;DHT22;21665;40.108;18.302;2023-02-13T10:09:57;13.00;99.90
35563;DHT22;21665;40.108;18.302;2023-02-13T10:12:54;13.10;99.90
35563;DHT22;21665;40.108;18.302;2023-02-13T10:18:05;13.20;99.90
35563;DHT22;21665;40.108;18.302;2023-02-13T10:20:40;13.40;99.90
35563;DHT22;21665;40.108;18.302;2023-02-13T10:23:16;13.70;99.90
35563;DHT22;21665;40.108;18.302;2023-02-13T10:25:51;14.10;99.90
35563;DHT22;21665;40.108;18.302;2023-02-13T10:28:36;14.60;99.90
35563;DHT22;21665;40.108;18.302;2023-02-13T10:31:13;15.00;99.90
35563;DHT22;21665;40.108;18.302;2023-02-13T10:33:53;14.80;99.90
35563;DHT22;21665;40.108;18.302;2023-02-13T10:36:22;14.80;99.90
35563;DHT22;21665;40.108;18.302;2023-02-13T10:44:29;15.20;99.90
35563;DHT22;21665;40.108;18.302;2023-02-13T10:47:20;14.90;99.90
35563;DHT22;21665;40.108;18.302;2023-02-13T10:55:27;15.20;99.90
35563;DHT22;21665;40.108;18.302;2023-02-13T10:58:00;14.90;99.90
35563;DHT22;21665;40.108;18.302;2023-02-13T11:03:01;14.60;99.90
35563;DHT22;21665;40.108;18.302;2023-02-13T11:05:36;14.50;99.90
35563;DHT22;21665;40.108;18.302;2023-02-13T11:08:23;14.70;99.90
35563;DHT22;21665;40.108;18.302;2023-02-13T11:10:50;15.10;99.90
35563;DHT22;21665;40.108;18.302;2023-02-13T11:13:23;15.30;99.90
35563;DHT22;21665;40.108;18.302;2023-02-13T11:16:10;15.30;99.90
35563;DHT22;21665;40.108;18.302;2023-02-13T11:18:40;14.90;99.90
35563;DHT22;21665;40.108;18.302;2023-02-13T11:21:22;14.60;99.90
35563;DHT22;21665;40.108;18.302;2023-02-13T11:24:02;14.30;99.90
35563;DHT22;21665;40.108;18.302;2023-02-13T11:26:35;14.00;99.90
35563;DHT22;21665;40.108;18.302;2023-02-13T11:29:15;13.80;99.90
35563;DHT22;21665;40.108;18.302;2023-02-13T11:31:42;13.50;99.90
35563;DHT22;21665;40.108;18.302;2023-02-13T11:36:52;13.20;99.90
35563;DHT22;21665;40.108;18.302;2023-02-13T11:39:24;13.30;99.90
35563;DHT22;21665;40.108;18.302;2023-02-13T11:41:52;13.40;99.90
35563;DHT22;21665;40.108;18.302;2023-02-13T11:44:31;13.50;99.90
35563;DHT22;21665;40.108;18.302;2023-02-13T11:47:01;13.60;99.90
35563;DHT22;21665;40.108;18.302;2023-02-13T11:49:37;13.60;99.90
35563;DHT22;21665;40.108;18.302;2023-02-13T11:52:25;13.50;99.90
35563;DHT22;21665;40.108;18.302;2023-02-13T11:55:05;13.60;99.90
35563;DHT22;21665;40.108;18.302;2023-02-13T11:58:03;13.70;99.90
35563;DHT22;21665;40.108;18.302;2023-02-13T12:00:35;13.80;99.90
35563;DHT22;21665;40.108;18.302;2023-02-13T12:08:37;14.50;99.90
35563;DHT22;21665;40.108;18.302;2023-02-13T12:14:18;14.60;99.90
35563;DHT22;21665;40.108;18.302;2023-02-13T12:17:07;14.80;99.90
35563;DHT22;21665;40.108;18.302;2023-02-13T12:19:43;15.10;99.90
35563;DHT22;21665;40.108;18.302;2023-02-13T12:22:35;15.20;99.90
35563;DHT22;21665;40.108;18.302;2023-02-13T12:28:14;14.40;99.90
35563;DHT22;21665;40.108;18.302;2023-02-13T12:31:14;13.90;99.90
35563;DHT22;21665;40.108;18.302;2023-02-13T12:34:17;13.60;99.90
35563;DHT22;21665;40.108;18.302;2023-02-13T12:48:02;13.30;99.90
35563;DHT22;21665;40.108;18.302;2023-02-13T12:53:41;13.20;99.90
35563;DHT22;21665;40.108;18.302;2023-02-13T12:59:09;13.20;99.90
35563;DHT22;21665;40.108;18.302;2023-02-13T13:01:48;13.30;99.90
35563;DHT22;21665;40.108;18.302;2023-02-13T13:10:35;13.50;99.90
35563;DHT22;21665;40.108;18.302;2023-02-13T13:21:43;13.60;99.90
35563;DHT22;21665;40.108;18.302;2023-02-13T13:26:53;13.50;99.90
35563;DHT22;21665;40.108;18.302;2023-02-13T13:29:26;13.40;99.90
35563;DHT22;21665;40.108;18.302;2023-02-13T13:32:02;13.30;99.90
35563;DHT22;21665;40.108;18.302;2023-02-13T13:34:30;13.20;99.90
35563;DHT22;21665;40.108;18.302;2023-02-13T13:37:17;13.20;99.90
35563;DHT22;21665;40.108;18.302;2023-02-13T13:39:55;13.20;99.90
35563;DHT22;21665;40.108;18.302;2023-02-13T13:42:34;13.10;99.90
35563;DHT22;21665;40.108;18.302;2023-02-13T13:45:19;13.10;99.90
35563;DHT22;21665;40.108;18.302;2023-02-13T13:48:17;13.30;99.90
35563;DHT22;21665;40.108;18.302;2023-02-13T13:50:45;13.20;99.90
35563;DHT22;21665;40.108;18.302;2023-02-13T13:53:19;13.10;99.90
35563;DHT22;21665;40.108;18.302;2023-02-13T13:58:38;13.10;99.90
35563;DHT22;21665;40.108;18.302;2023-02-13T14:01:15;13.00;99.90
35563;DHT22;21665;40.108;18.302;2023-02-13T14:03:46;13.10;99.90
35563;DHT22;21665;40.108;18.302;2023-02-13T14:06:18;13.00;99.90
35563;DHT22;21665;40.108;18.302;2023-02-13T14:08:56;13.00;99.90
35563;DHT22;21665;40.108;18.302;2023-02-13T14:11:35;12.90;99.90
35563;DHT22;21665;40.108;18.302;2023-02-13T14:16:59;12.70;99.90
35563;DHT22;21665;40.108;18.302;2023-02-13T14:19:33;12.60;99.90
35563;DHT22;21665;40.108;18.302;2023-02-13T14:22:33;12.50;99.90
35563;DHT22;21665;40.108;18.302;2023-02-13T14:25:06;12.60;99.90
35563;DHT22;21665;40.108;18.302;2023-02-13T14:27:58;12.70;99.90
35563;DHT22;21665;40.108;18.302;2023-02-13T14:30:46;12.60;99.90
35563;DHT22;21665;40.108;18.302;2023-02-13T14:33:26;12.50;99.90
35563;DHT22;21665;40.108;18.302;2023-02-13T14:36:20;12.50;99.90
35563;DHT22;21665;40.108;18.302;2023-02-13T14:38:57;12.40;99.90
35563;DHT22;21665;40.108;18.302;2023-02-13T14:44:20;12.40;99.90
35563;DHT22;21665;40.108;18.302;2023-02-13T14:46:48;12.30;99.90
35563;DHT22;21665;40.108;18.302;2023-02-13T14:49:27;12.20;99.90
35563;DHT22;21665;40.108;18.302;2023-02-13T14:52:00;12.10;99.90
35563;DHT22;21665;40.108;18.302;2023-02-13T14:54:45;12.10;99.90
35563;DHT22;21665;40.108;18.302;2023-02-13T14:57:16;12.00;99.90
35563;DHT22;21665;40.108;18.302;2023-02-13T14:59:49;12.00;99.90
35563;DHT22;21665;40.108;18.302;2023-02-13T15:02:26;12.00;99.90
35563;DHT22;21665;40.108;18.302;2023-02-13T15:05:00;11.90;99.90
35563;DHT22;21665;40.108;18.302;2023-02-13T15:07:34;11.80;99.90
35563;DHT22;21665;40.108;18.302;2023-02-13T15:10:48;11.70;99.90
35563;DHT22;21665;40.108;18.302;2023-02-13T15:13:17;11.60;99.90
35563;DHT22;21665;40.108;18.302;2023-02-13T15:15:52;11.60;99.90
35563;DHT22;21665;40.108;18.302;2023-02-13T15:18:26;11.60;99.90
35563;DHT22;21665;40.108;18.302;2023-02-13T15:20:55;11.60;99.90
35563;DHT22;21665;40.108;18.302;2023-02-13T15:23:26;11.50;99.90
35563;DHT22;21665;40.108;18.302;2023-02-13T15:26:20;11.50;99.90
35563;DHT22;21665;40.108;18.302;2023-02-13T15:29:04;11.40;99.90
35563;DHT22;21665;40.108;18.302;2023-02-13T15:31:38;11.40;99.90
35563;DHT22;21665;40.108;18.302;2023-02-13T15:34:25;11.40;99.90
35563;DHT22;21665;40.108;18.302;2023-02-13T15:36:54;11.30;99.90
35563;DHT22;21665;40.108;18.302;2023-02-13T15:39:26;11.30;99.90
35563;DHT22;21665;40.108;18.302;2023-02-13T15:41:59;11.20;99.90
35563;DHT22;21665;40.108;18.302;2023-02-13T15:44:34;11.10;99.90
35563;DHT22;21665;40.108;18.302;2023-02-13T15:47:13;11.10;99.90
35563;DHT22;21665;40.108;18.302;2023-02-13T15:49:46;11.00;99.90
35563;DHT22;21665;40.108;18.302;2023-02-13T15:52:30;11.00;99.90
35563;DHT22;21665;40.108;18.302;2023-02-13T15:54:58;10.90;99.90
35563;DHT22;21665;40.108;18.302;2023-02-13T15:57:25;10.90;99.90
35563;DHT22;21665;40.108;18.302;2023-02-13T15:59:54;10.80;99.90
35563;DHT22;21665;40.108;18.302;2023-02-13T16:02:24;10.80;99.90
35563;DHT22;21665;40.108;18.302;2023-02-13T16:04:54;10.70;99.90
35563;DHT22;21665;40.108;18.302;2023-02-13T16:07:24;10.70;99.90
35563;DHT22;21665;40.108;18.302;2023-02-13T16:09:50;10.60;99.90
35563;DHT22;21665;40.108;18.302;2023-02-13T16:14:52;10.50;99.90
35563;DHT22;21665;40.108;18.302;2023-02-13T16:17:34;10.50;99.90
35563;DHT22;21665;40.108;18.302;2023-02-13T16:20:05;10.50;99.90
35563;DHT22;21665;40.108;18.302;2023-02-13T16:22:39;10.40;99.90
35563;DHT22;21665;40.108;18.302;2023-02-13T16:28:03;10.20;99.90
35563;DHT22;21665;40.108;18.302;2023-02-13T16:30:38;10.10;99.90
35563;DHT22;21665;40.108;18.302;2023-02-13T16:35:40;10.10;99.90
35563;DHT22;21665;40.108;18.302;2023-02-13T16:38:32;10.10;99.90
35563;DHT22;21665;40.108;18.302;2023-02-13T16:41:46;10.00;99.90
35563;DHT22;21665;40.108;18.302;2023-02-13T16:43:50;9.90;99.90
35563;DHT22;21665;40.108;18.302;2023-02-13T16:46:35;9.90;99.90
35563;DHT22;21665;40.108;18.302;2023-02-13T16:49:14;9.90;99.90
35563;DHT22;21665;40.108;18.302;2023-02-13T16:52:17;9.80;99.90
35563;DHT22;21665;40.108;18.302;2023-02-13T16:59:51;9.70;99.90
35563;DHT22;21665;40.108;18.302;2023-02-13T17:02:27;9.70;99.90
35563;DHT22;21665;40.108;18.302;2023-02-13T17:07:39;9.50;99.90
35563;DHT22;21665;40.108;18.302;2023-02-13T17:10:32;9.50;99.90
35563;DHT22;21665;40.108;18.302;2023-02-13T17:13:03;9.40;99.90
35563;DHT22;21665;40.108;18.302;2023-02-13T17:15:42;9.40;99.90
35563;DHT22;21665;40.108;18.302;2023-02-13T17:18:09;9.40;99.90
35563;DHT22;21665;40.108;18.302;2023-02-13T17:20:39;9.30;99.90
35563;DHT22;21665;40.108;18.302;2023-02-13T17:23:07;9.30;99.90
35563;DHT22;21665;40.108;18.302;2023-02-13T17:25:39;9.20;99.90
35563;DHT22;21665;40.108;18.302;2023-02-13T17:28:30;9.20;99.90
35563;DHT22;21665;40.108;18.302;2023-02-13T17:30:58;9.20;99.90
35563;DHT22;21665;40.108;18.302;2023-02-13T17:33:30;9.10;99.90
35563;DHT22;21665;40.108;18.302;2023-02-13T17:35:58;9.10;99.90
35563;DHT22;21665;40.108;18.302;2023-02-13T17:38:25;9.00;99.90
35563;DHT22;21665;40.108;18.302;2023-02-13T17:40:51;9.00;99.90
35563;DHT22;21665;40.108;18.302;2023-02-13T17:43:18;8.90;99.90
35563;DHT22;21665;40.108;18.302;2023-02-13T17:45:46;8.90;99.90
35563;DHT22;21665;40.108;18.302;2023-02-13T17:48:12;8.90;99.90
35563;DHT22;21665;40.108;18.302;2023-02-13T17:50:39;8.90;99.90
35563;DHT22;21665;40.108;18.302;2023-02-13T17:53:10;8.90;99.90
35563;DHT22;21665;40.108;18.302;2023-02-13T17:55:41;8.80;99.90
35563;DHT22;21665;40.108;18.302;2023-02-13T17:58:07;8.80;99.90
35563;DHT22;21665;40.108;18.302;2023-02-13T18:00:33;8.80;99.90
35563;DHT22;21665;40.108;18.302;2023-02-13T18:03:00;8.70;99.90
35563;DHT22;21665;40.108;18.302;2023-02-13T18:05:51;8.70;99.90
35563;DHT22;21665;40.108;18.302;2023-02-13T18:08:18;8.60;99.90
35563;DHT22;21665;40.108;18.302;2023-02-13T18:10:46;8.60;99.90
35563;DHT22;21665;40.108;18.302;2023-02-13T18:13:13;8.70;99.90
35563;DHT22;21665;40.108;18.302;2023-02-13T18:15:42;8.60;99.90
35563;DHT22;21665;40.108;18.302;2023-02-13T18:18:10;8.60;99.90
35563;DHT22;21665;40.108;18.302;2023-02-13T18:20:37;8.50;99.90
35563;DHT22;21665;40.108;18.302;2023-02-13T18:23:04;8.50;99.90
35563;DHT22;21665;40.108;18.302;2023-02-13T18:25:32;8.30;99.90
35563;DHT22;21665;40.108;18.302;2023-02-13T18:27:59;8.20;99.90
35563;DHT22;21665;40.108;18.302;2023-02-13T18:30:25;8.10;99.90
35563;DHT22;21665;40.108;18.302;2023-02-13T18:32:53;8.00;99.90
35563;DHT22;21665;40.108;18.302;2023-02-13T18:35:21;7.80;99.90
35563;DHT22;21665;40.108;18.302;2023-02-13T18:37:48;7.70;99.90
35563;DHT22;21665;40.108;18.302;2023-02-13T18:40:14;7.70;99.90
35563;DHT22;21665;40.108;18.302;2023-02-13T18:42:43;7.70;99.90
35563;DHT22;21665;40.108;18.302;2023-02-13T18:45:09;7.70;99.90
35563;DHT22;21665;40.108;18.302;2023-02-13T18:47:36;7.60;99.90
35563;DHT22;21665;40.108;18.302;2023-02-13T18:50:03;7.60;99.90
35563;DHT22;21665;40.108;18.302;2023-02-13T18:52:30;7.60;99.90
35563;DHT22;21665;40.108;18.302;2023-02-13T18:54:56;7.50;99.90
35563;DHT22;21665;40.108;18.302;2023-02-13T18:57:23;7.40;99.90
35563;DHT22;21665;40.108;18.302;2023-02-13T18:59:50;7.40;99.90
35563;DHT22;21665;40.108;18.302;2023-02-13T19:02:16;7.40;99.90
35563;DHT22;21665;40.108;18.302;2023-02-13T19:04:42;7.30;99.90
35563;DHT22;21665;40.108;18.302;2023-02-13T19:07:09;7.20;99.90
35563;DHT22;21665;40.108;18.302;2023-02-13T19:09:35;7.20;99.90
35563;DHT22;21665;40.108;18.302;2023-02-13T19:12:05;7.10;99.90
35563;DHT22;21665;40.108;18.302;2023-02-13T19:14:32;7.00;99.90
35563;DHT22;21665;40.108;18.302;2023-02-13T19:16:59;7.00;99.90
35563;DHT22;21665;40.108;18.302;2023-02-13T19:19:25;7.00;99.90
35563;DHT22;21665;40.108;18.302;2023-02-13T19:21:52;7.10;99.90
35563;DHT22;21665;40.108;18.302;2023-02-13T19:24:18;7.10;99.90
35563;DHT22;21665;40.108;18.302;2023-02-13T19:26:56;7.10;99.90
35563;DHT22;21665;40.108;18.302;2023-02-13T19:29:23;7.10;99.90
35563;DHT22;21665;40.108;18.302;2023-02-13T19:31:49;7.00;99.90
35563;DHT22;21665;40.108;18.302;2023-02-13T19:34:16;6.90;99.90
35563;DHT22;21665;40.108;18.302;2023-02-13T19:36:42;6.90;99.90
35563;DHT22;21665;40.108;18.302;2023-02-13T19:39:10;7.00;99.90
35563;DHT22;21665;40.108;18.302;2023-02-13T19:41:37;6.90;99.90
35563;DHT22;21665;40.108;18.302;2023-02-13T19:44:05;7.00;99.90
35563;DHT22;21665;40.108;18.302;2023-02-13T19:46:33;7.00;99.90
35563;DHT22;21665;40.108;18.302;2023-02-13T19:49:00;7.10;99.90
35563;DHT22;21665;40.108;18.302;2023-02-13T19:51:30;7.10;99.90
35563;DHT22;21665;40.108;18.302;2023-02-13T19:53:59;7.10;99.90
35563;DHT22;21665;40.108;18.302;2023-02-13T19:56:27;7.00;99.90
35563;DHT22;21665;40.108;18.302;2023-02-13T19:58:54;7.00;99.90
35563;DHT22;21665;40.108;18.302;2023-02-13T20:01:22;7.20;99.90
35563;DHT22;21665;40.108;18.302;2023-02-13T20:03:49;7.10;99.90
35563;DHT22;21665;40.108;18.302;2023-02-13T20:06:18;7.20;99.90
35563;DHT22;21665;40.108;18.302;2023-02-13T20:08:45;7.30;99.90
35563;DHT22;21665;40.108;18.302;2023-02-13T20:11:14;7.30;99.90
35563;DHT22;21665;40.108;18.302;2023-02-13T20:13:41;7.10;99.90
35563;DHT22;21665;40.108;18.302;2023-02-13T20:16:11;7.10;99.90
35563;DHT22;21665;40.108;18.302;2023-02-13T20:18:38;7.00;99.90
35563;DHT22;21665;40.108;18.302;2023-02-13T20:21:14;7.00;99.90
35563;DHT22;21665;40.108;18.302;2023-02-13T20:23:42;6.90;99.90
35563;DHT22;21665;40.108;18.302;2023-02-13T20:26:13;6.90;99.90
35563;DHT22;21665;40.108;18.302;2023-02-13T20:28:41;6.80;99.90
35563;DHT22;21665;40.108;18.302;2023-02-13T20:31:13;6.70;99.90
35563;DHT22;21665;40.108;18.302;2023-02-13T20:33:44;6.70;99.90
35563;DHT22;21665;40.108;18.302;2023-02-13T20:36:17;6.70;99.90
35563;DHT22;21665;40.108;18.302;2023-02-13T20:38:44;6.60;99.90
35563;DHT22;21665;40.108;18.302;2023-02-13T20:41:17;6.50;99.90
35563;DHT22;21665;40.108;18.302;2023-02-13T20:43:45;6.50;99.90
35563;DHT22;21665;40.108;18.302;2023-02-13T20:46:12;6.50;99.90
35563;DHT22;21665;40.108;18.302;2023-02-13T20:48:43;6.40;99.90
35563;DHT22;21665;40.108;18.302;2023-02-13T20:51:11;6.30;99.90
35563;DHT22;21665;40.108;18.302;2023-02-13T20:53:41;6.30;99.90
35563;DHT22;21665;40.108;18.302;2023-02-13T20:58:37;6.30;99.90
35563;DHT22;21665;40.108;18.302;2023-02-13T21:01:10;6.30;99.90
35563;DHT22;21665;40.108;18.302;2023-02-13T21:03:37;6.20;99.90
35563;DHT22;21665;40.108;18.302;2023-02-13T21:06:04;6.20;99.90
35563;DHT22;21665;40.108;18.302;2023-02-13T21:08:31;6.10;99.90
35563;DHT22;21665;40.108;18.302;2023-02-13T21:11:06;6.10;99.90
35563;DHT22;21665;40.108;18.302;2023-02-13T21:13:33;6.10;99.90
35563;DHT22;21665;40.108;18.302;2023-02-13T21:16:09;6.00;99.90
35563;DHT22;21665;40.108;18.302;2023-02-13T21:18:37;6.00;99.90
35563;DHT22;21665;40.108;18.302;2023-02-13T21:21:04;6.00;99.90
35563;DHT22;21665;40.108;18.302;2023-02-13T21:23:31;6.00;99.90
35563;DHT22;21665;40.108;18.302;2023-02-13T21:26:06;6.00;99.90
35563;DHT22;21665;40.108;18.302;2023-02-13T21:28:35;5.90;99.90
35563;DHT22;21665;40.108;18.302;2023-02-13T21:31:15;5.90;99.90
35563;DHT22;21665;40.108;18.302;2023-02-13T21:33:42;5.90;99.90
35563;DHT22;21665;40.108;18.302;2023-02-13T21:36:10;5.90;99.90
35563;DHT22;21665;40.108;18.302;2023-02-13T21:38:38;5.80;99.90
35563;DHT22;21665;40.108;18.302;2023-02-13T21:41:16;5.80;99.90
35563;DHT22;21665;40.108;18.302;2023-02-13T21:43:43;5.70;99.90
35563;DHT22;21665;40.108;18.302;2023-02-13T21:46:18;5.70;99.90
35563;DHT22;21665;40.108;18.302;2023-02-13T21:48:46;5.70;99.90
35563;DHT22;21665;40.108;18.302;2023-02-13T21:51:17;5.70;99.90
35563;DHT22;21665;40.108;18.302;2023-02-13T21:53:48;5.70;99.90
35563;DHT22;21665;40.108;18.302;2023-02-13T21:56:21;5.60;99.90
35563;DHT22;21665;40.108;18.302;2023-02-13T21:58:48;5.60;99.90
35563;DHT22;21665;40.108;18.302;2023-02-13T22:01:23;5.60;99.90
35563;DHT22;21665;40.108;18.302;2023-02-13T22:03:50;5.60;99.90
35563;DHT22;21665;40.108;18.302;2023-02-13T22:06:17;5.60;99.90
35563;DHT22;21665;40.108;18.302;2023-02-13T22:08:46;5.60;99.90
35563;DHT22;21665;40.108;18.302;2023-02-13T22:11:13;5.60;99.90
35563;DHT22;21665;40.108;18.302;2023-02-13T22:13:39;5.50;99.90
35563;DHT22;21665;40.108;18.302;2023-02-13T22:16:11;5.50;99.90
35563;DHT22;21665;40.108;18.302;2023-02-13T22:18:40;5.50;99.90
35563;DHT22;21665;40.108;18.302;2023-02-13T22:21:12;5.50;99.90
35563;DHT22;21665;40.108;18.302;2023-02-13T22:23:40;5.50;99.90